createdAt,value
2022-10-11T06:54:07.333Z,28.33
2022-10-11T06:59:01.838Z,19.00
2022-10-11T07:03:59.307Z,15.17
2022-10-11T07:28:50.847Z,20.33
2022-10-11T07:33:44.743Z,14.83
2022-10-11T07:38:40.955Z,20.30
2022-10-11T07:43:34.826Z,21.57
2022-10-11T07:48:30.089Z,23.97
2022-10-11T07:53:23.707Z,19.67
2022-10-11T07:58:17.513Z,11.40
2022-10-11T08:03:11.649Z,12.73
2022-10-11T08:08:13.817Z,13.63
2022-10-11T08:13:07.996Z,15.27
2022-10-11T08:18:01.731Z,15.63
2022-10-11T08:22:55.519Z,20.17
2022-10-11T08:27:50.863Z,15.63
2022-10-11T08:32:44.649Z,22.27
2022-10-11T08:37:38.521Z,20.30
2022-10-11T08:42:37.562Z,15.47
2022-10-11T08:47:35.563Z,16.90
2022-10-11T08:52:44.246Z,18.43
2022-10-11T08:57:40.596Z,19.03
2022-10-11T09:03:08.120Z,14.83
2022-10-11T09:08:09.018Z,12.90
2022-10-11T09:13:14.413Z,10.95
2022-10-11T09:18:31.733Z,10.95
2022-10-11T09:23:40.337Z,17.23
2022-10-11T09:28:45.755Z,11.40
2022-10-11T09:33:45.426Z,7.90
2022-10-11T09:38:43.346Z,10.02
2022-10-11T09:43:37.066Z,10.07
2022-10-11T09:48:38.895Z,11.68
2022-10-11T09:53:56.614Z,8.82
2022-10-11T09:58:51.075Z,8.32
2022-10-11T10:03:46.529Z,7.70
2022-10-11T10:08:40.490Z,8.18
2022-10-11T10:13:45.745Z,6.95
2022-10-11T10:18:45.458Z,8.02
2022-10-11T10:23:39.442Z,10.18
2022-10-11T10:28:33.448Z,10.13
2022-10-11T10:33:34.389Z,10.43
2022-10-11T10:38:30.687Z,8.27
2022-10-11T10:43:27.430Z,8.45
2022-10-11T10:48:41.732Z,9.00
2022-10-11T10:53:47.191Z,9.55
2022-10-11T10:59:04.983Z,10.75
2022-10-11T11:04:09.621Z,11.63
2022-10-11T11:09:15.482Z,10.40
2022-10-11T11:14:19.535Z,7.35
2022-10-11T11:19:25.925Z,6.07
2022-10-11T11:24:28.092Z,8.82
2022-10-11T11:29:37.055Z,6.25
2022-10-11T11:34:38.518Z,12.50
2022-10-11T11:39:37.535Z,8.25
2022-10-11T11:44:34.750Z,9.45
2022-10-11T11:49:35.708Z,6.47
2022-10-11T11:54:40.839Z,4.50
2022-10-11T11:59:40.490Z,13.63
2022-10-11T12:04:39.107Z,6.70
2022-10-11T12:09:33.942Z,8.85
2022-10-11T12:14:36.501Z,8.40
2022-10-11T12:19:30.019Z,6.18
2022-10-11T12:24:26.198Z,8.27
2022-10-11T12:29:50.629Z,8.82
2022-10-11T12:34:45.900Z,8.93
2022-10-11T12:39:53.375Z,10.73
2022-10-11T12:45:41.533Z,6.43
2022-10-11T12:50:46.108Z,7.18
2022-10-11T12:55:50.471Z,9.63
2022-10-11T13:01:06.418Z,7.80
2022-10-11T13:06:02.024Z,7.57
2022-10-11T13:11:00.754Z,8.55
2022-10-11T13:15:58.088Z,9.75
2022-10-11T13:20:52.183Z,13.85
2022-10-11T13:25:47.538Z,9.23
2022-10-11T13:30:46.878Z,12.40
2022-10-11T13:35:40.782Z,8.50
2022-10-11T13:40:35.170Z,10.88
2022-10-11T13:45:32.158Z,7.82
2022-10-11T13:50:32.506Z,9.65
2022-10-11T13:55:32.310Z,8.57
2022-10-11T14:00:30.070Z,6.82
2022-10-11T14:05:31.065Z,9.45
2022-10-11T14:10:26.084Z,11.50
2022-10-11T14:15:27.706Z,11.27
2022-10-11T14:20:25.675Z,13.43
2022-10-11T14:25:23.375Z,18.02
2022-10-11T14:30:27.740Z,11.10
2022-10-11T14:35:24.854Z,10.98
2022-10-11T14:40:20.870Z,10.23
2022-10-11T14:45:16.419Z,7.43
2022-10-11T14:50:34.177Z,10.07
2022-10-11T14:55:27.779Z,11.00
2022-10-11T15:00:26.002Z,12.20
2022-10-11T15:05:19.632Z,12.48
2022-10-11T15:10:20.030Z,9.13
2022-10-11T15:15:19.682Z,8.52
2022-10-11T15:20:21.364Z,12.18
2022-10-11T15:25:15.351Z,14.15
2022-10-11T15:30:14.901Z,11.10
2022-10-11T15:35:09.227Z,11.15
2022-10-11T15:40:05.591Z,14.57
2022-10-11T15:44:59.162Z,10.90
2022-10-11T15:49:52.945Z,9.75
2022-10-11T15:54:46.906Z,14.20
2022-10-11T15:59:42.183Z,14.43
2022-10-11T16:04:36.191Z,13.43
2022-10-11T16:09:30.140Z,9.15
2022-10-11T16:14:23.850Z,13.65
2022-10-11T16:19:19.237Z,12.95
2022-10-11T16:24:14.254Z,10.73
2022-10-11T16:29:10.275Z,18.40
2022-10-11T16:34:04.174Z,12.85
2022-10-11T16:38:59.990Z,16.65
2022-10-11T16:43:54.079Z,14.60
2022-10-11T16:48:49.209Z,10.88
2022-10-11T16:53:43.178Z,16.88
2022-10-11T16:58:38.605Z,16.77
2022-10-11T17:03:32.222Z,18.55
2022-10-11T17:08:26.157Z,14.60
2022-10-11T17:13:19.779Z,16.02
2022-10-11T17:18:15.749Z,15.45
2022-10-11T17:23:09.976Z,17.95
2022-10-11T17:28:03.952Z,14.52
2022-10-11T17:32:57.766Z,15.35
2022-10-11T17:37:53.498Z,12.98
2022-10-11T17:42:50.061Z,12.38
2022-10-11T17:47:43.987Z,15.60
2022-10-11T17:52:37.951Z,16.20
2022-10-11T17:57:34.713Z,25.85
2022-10-11T18:02:28.786Z,29.00
2022-10-11T18:07:24.056Z,22.08
2022-10-11T18:12:18.445Z,15.10
2022-10-11T18:17:14.183Z,19.25
2022-10-11T18:22:08.520Z,21.20
2022-10-11T18:27:02.592Z,18.60
2022-10-11T18:31:56.435Z,14.88
2022-10-11T18:36:52.350Z,17.80
2022-10-11T18:41:46.842Z,16.67
2022-10-11T18:46:40.889Z,21.88
2022-10-11T18:51:37.750Z,20.10
2022-10-11T18:56:34.739Z,21.70
2022-10-11T19:01:30.424Z,20.50
2022-10-11T19:06:28.356Z,19.27
2022-10-11T19:11:25.546Z,27.60
2022-10-11T19:16:21.332Z,24.15
2022-10-11T19:21:15.639Z,23.85
2022-10-11T19:26:10.311Z,25.55
2022-10-11T19:31:06.028Z,21.65
2022-10-11T19:36:04.403Z,22.08
2022-10-11T19:40:58.436Z,20.25
2022-10-11T19:45:54.808Z,14.63
2022-10-11T19:50:48.630Z,19.35
2022-10-11T19:55:46.476Z,19.13
2022-10-11T20:00:40.678Z,16.45
2022-10-11T20:05:38.483Z,21.48
2022-10-11T20:10:32.825Z,17.67
